Anton Claesson

Chefscout - BK Hacken
4 Apr 2027
Sonntag
Verarbeitung

Persönlichkeit

Anpassungsfähigkeit (7) Ehrgeiz (7) Kontroverse (7) Loyalität (12) Druck (14) Professionalität (2) Fairness (3) Temperament (20)

Profil

Trainerstil Demokratisch
Lizenz Kontinentale A
Entschlossenheit 7
Menschenführung 10
Motivation 5
Disziplin 8
Arbeitszufriedenheit
49%
Ermüdung
0%
Rolle Chefscout
Gehalt 12.9K p/W
Vertrag 14.03.2029

Leistung

Verhalten Normal
Trainingseffektivität
16%
Spielerentwicklung
60%
Verletzungsprävention
20%
Taktische Umsetzung
20%

Letzte Ereignisse

Spieler begutachtet jetzt
Nahm an einer Scouting-Besprechung teil jetzt
Spieler begutachtet jetzt
Spieler begutachtet jetzt
Spieler begutachtet jetzt
Spieler begutachtet jetzt
Spieler begutachtet 7T her
Spieler begutachtet 7T her

Aktuell beobachtet

174
Spieler Verein Status Fähigkeit Vertrauen Beobachtet Zuletzt beobachtet Letzte Stimme
Liam Millar Hull City Aktiv 121 / 140 40% 1 03.04.2027 -
Tariq Lamptey Queens Park Rangers Aktiv 128 / 138 40% 1 03.04.2027 -
Juan Bezerra Zamalek Aktiv 129 / 126 40% 3 02.04.2027 -
Jack Rudoni Coventry City Aktiv 138 / 142 40% 1 02.04.2027 -
Jerome Karelse Golden Arrows Aktiv 107 / 121 40% 4 01.04.2027 -
Noah Sadiki Sunderland Aktiv 152 / 144 40% 1 01.04.2027 -
Jason Knight Bristol City Aktiv 123 / 132 40% 1 01.04.2027 -
Tasos Douvikas Como Aktiv 140 / 147 40% 1 01.04.2027 -
Juan Carlos Pineda Beroe Aktiv 103 / 125 40% 1 30.03.2027 -
Ousmane Coulibaly Stade Malien Aktiv 108 / 97 40% 1 30.03.2027 -
Marcus Ifill Bromley Aktiv 115 / 107 40% 2 29.03.2027 -
Keagan Hlatshwayo SuperSport United Aktiv 117 / 116 40% 1 29.03.2027 -
Itumeleng Tau Ajax Cape Town Aktiv 126 / 123 40% 6 28.03.2027 -
Ali Soliman Masr El Makasa Aktiv 122 / 119 40% 1 28.03.2027 -
Wandile Duba Bidvest Wits Aktiv 97 / 106 40% 1 28.03.2027 -
Badr Mousa Petrojet Aktiv 97 / 91 40% 1 28.03.2027 -
Lebogang Erasmus Platinum Stars Aktiv 100 / 96 40% 2 26.03.2027 -
Kamogelo Sebelebele Orlando Pirates Aktiv 96 / 122 40% 1 26.03.2027 -
Lorenzo Ignacchiti Empoli Aktiv 114 / 126 40% 1 25.03.2027 -
Toni Tamarit Alverca Aktiv 110 / 120 40% 1 25.03.2027 -
Dylan Lawlor Cardiff City Aktiv 111 / 126 40% 1 25.03.2027 -
Charlie Webster Burton Albion Aktiv 117 / 126 40% 1 23.03.2027 -
Akinkunmi Amoo Ismaily Aktiv 134 / 136 40% 1 23.03.2027 -
Callum Stead Barnet Aktiv 82 / 98 40% 2 22.03.2027 -
Jenson Metcalfe Bradford City Aktiv 98 / 119 40% 1 22.03.2027 -
Daniel Kyerewaa Reading Aktiv 115 / 105 40% 1 22.03.2027 -
Miguel Falé Pacos de Ferreira Aktiv 99 / 102 40% 1 22.03.2027 -
Ibrahim Cissoko Zwolle Aktiv 125 / 121 40% 1 20.03.2027 -
Kirill Danilin Fakel Aktiv 111 / 126 40% 1 20.03.2027 -
Erick Ngcobo Black Aces Aktiv 104 / 122 40% 2 19.03.2027 -
Stanislav Biblyk Chaika Aktiv 91 / 92 40% 2 19.03.2027 -
Michael Craig Leyton Orient Aktiv 95 / 106 40% 1 19.03.2027 -
Lorenzo Di Stefano Torres Aktiv 106 / 100 40% 1 19.03.2027 -
Rhys Chadwick Peterborough United Aktiv 91 / 110 40% 1 18.03.2027 -
Artem Slesar Zorya Aktiv 105 / 115 40% 2 16.03.2027 -
Brian Figueroa Morelia Aktiv 107 / 95 40% 1 16.03.2027 -
Jonathan Acquah WAFA Aktiv 97 / 71 40% 3 15.03.2027 -
Kwadwo Obeng Junior Heart of Lions Aktiv 77 / 83 40% 1 15.03.2027 -
Amos Inusah Wa All Stars Aktiv 99 / 98 40% 4 14.03.2027 -
Ekain Orobengoa Real Sociedad Aktiv 95 / 112 40% 1 14.03.2027 -
José Martínes CSKA 1948 Aktiv 93 / 110 40% 1 13.03.2027 -
Calum Kavanagh Oldham Athletic Aktiv 94 / 110 40% 3 12.03.2027 -
Danyil Alefirenko Chornomorets Aktiv 114 / 101 40% 7 11.03.2027 -
Luther Zwane Platinum Stars Aktiv 109 / 122 40% 2 10.03.2027 -
Stephen Amankona Aduana Stars Aktiv 77 / 114 40% 3 08.03.2027 -
Simone Ianesi Pianese Aktiv 96 / 93 40% 1 08.03.2027 -
Aljoša Matko Ujpest Abgelehnt 117 / 117 66% 1 01.02.2027 Ablehnen
Percy Erasmus SuperSport United Abgelehnt 125 / 125 67% 1 01.02.2027 Ablehnen
Teboho Williams SuperSport United Abgelehnt 121 / 121 66% 1 01.02.2027 Ablehnen
Montader Madjed Hammarby Aktiv 103 / 116 55% 1 01.02.2027 -
Berna CSKA 1948 Aktiv 114 / 122 40% 2 30.01.2027 -
Piotr Samiec-Talar Slask Aktiv 93 / 105 40% 1 30.01.2027 -
Solly Khunyedi Bloemfontein Celtic Aktiv 117 / 99 40% 1 29.01.2027 -
Rodrigo Trejo Vorskla Aktiv 93 / 78 40% 1 29.01.2027 -
Freddie Draper Lincoln City Aktiv 100 / 101 40% 1 28.01.2027 -
Jack Vale Alcione Milano Aktiv 97 / 86 40% 1 28.01.2027 -
Diego Valencia Gornik Leczna Abgelehnt 96 / 112 40% 1 27.01.2027 Mehr Infos nötig
Dmitry Tsypchenko Torpedo Moscow Aktiv 111 / 95 40% 1 27.01.2027 -
Dijon Kameri Cracovia Aktiv 119 / 109 40% 1 27.01.2027 -
Carlos Paraco Metalist Aktiv 97 / 96 40% 1 27.01.2027 -
Tony Springett Cheltenham Town Aktiv 95 / 114 40% 1 25.01.2027 -
Brooklyn Poggenpoel Maritzburg United Aktiv 102 / 87 40% 1 25.01.2027 -
Gilson Benchimol Akron Aktiv 103 / 127 40% 1 25.01.2027 -
Vyacheslav Grulev Nizhniy Novgorod Aktiv 109 / 114 40% 1 24.01.2027 -
Kyreece Lisbie Colchester United Aktiv 118 / 104 40% 3 22.01.2027 -
Nicolás Cordero Aldosivi Aktiv 123 / 125 40% 1 22.01.2027 -
Hlompho Modiba Black Aces Aktiv 75 / 96 40% 2 20.01.2027 -
Papa Ndiaga Yade Oleksandriya Aktiv 94 / 109 40% 1 18.01.2027 -
Vladimir Khubulov Dinamo Makhachkala Aktiv 94 / 121 40% 1 18.01.2027 -
Emmanuel Ekong Malmo FF Aktiv 106 / 110 40% 8 17.01.2027 -
Seidu Basit Ashanti Gold Aktiv 80 / 92 40% 1 16.01.2027 -
Angelo Gattermayer Wolfsberger AC Abgelehnt 124 / 109 40% 1 16.01.2027 Mehr Infos nötig
Thalente Mbatha Orlando Pirates Aktiv 100 / 121 40% 1 14.01.2027 -
Jerónimo Porto Lapegüe Slask Aktiv 95 / 122 40% 1 14.01.2027 -
Vladimir Nikolov Slavia Sofia Aktiv 103 / 99 40% 2 12.01.2027 -
Ihor Krasnopir Polissia Abgelehnt 125 / 120 40% 1 12.01.2027 Mehr Infos nötig
Pavel Meleshin Sochi Abgelehnt 102 / 114 40% 2 11.01.2027 Mehr Infos nötig
Kwame Opoku Asante Kotoko Aktiv 85 / 102 40% 1 11.01.2027 -
Peter Itodo Metalist Aktiv 129 / 116 40% 1 10.01.2027 -
Mees Rijks Bristol Rovers Aktiv 99 / 113 40% 1 10.01.2027 -
Gift Zwane Platinum Stars Aktiv 124 / 106 40% 1 10.01.2027 -
Phoenix Patterson Stevenage Aktiv 113 / 107 40% 1 10.01.2027 -
Assad Al Hamlawi Universitatea Craiova Aktiv 112 / 123 40% 7 07.01.2027 -
Alasana Yirajang Slovan Bratislava Aktiv 119 / 120 40% 1 06.01.2027 -
Harry Leonard Peterborough United Aktiv 114 / 107 40% 1 05.01.2027 -
Denys Rezepov Nyva Aktiv 90 / 75 40% 1 04.01.2027 -
Thabang Matuludi Polokwane City Aktiv 112 / 102 40% 1 02.01.2027 -
Mfundo Vilakazi Kaizer Chiefs Aktiv 112 / 103 40% 1 02.01.2027 -
Etiosa Ighodaro Kaizer Chiefs Aktiv 118 / 95 40% 3 30.12.2026 -
Dom Ballard Leyton Orient Aktiv 118 / 117 40% 1 30.12.2026 -
Jovon Makama Norwich City Aktiv 124 / 114 40% 2 29.12.2026 -
Dale Taylor Blackpool Aktiv 100 / 114 40% 1 29.12.2026 -
Yousef Salech Cardiff City Aktiv 118 / 124 40% 2 28.12.2026 -
Mathias Jørgensen Blackburn Rovers Aktiv 111 / 105 40% 1 28.12.2026 -
Camilo Durán Bloemfontein Celtic Aktiv 128 / 111 40% 4 26.12.2026 -
Mohamed-Ali Cho Hull City Aktiv 147 / 130 40% 1 24.12.2026 -
Tyreece Campbell Charlton Athletic Aktiv 123 / 112 40% 1 24.12.2026 -
Žan Vipotnik Swansea City Aktiv 121 / 117 40% 1 23.12.2026 -
Frederik Ihler IF Elfsborg Aktiv 114 / 120 40% 5 22.12.2026 -
Mihailo Ivanović Millwall Aktiv 115 / 120 40% 1 22.12.2026 -
Will Lankshear Middlesbrough Aktiv 120 / 124 40% 2 21.12.2026 -
Kelly Saravanan Salford City Aktiv 106 / 121 40% 1 20.12.2026 -
Aidomo Emakhu Oxford United Aktiv 111 / 124 40% 1 20.12.2026 -
Brayan León Mamelodi Sundowns Aktiv 101 / 106 40% 5 19.12.2026 -
Aune Heggebø West Bromwich Albion Aktiv 126 / 141 40% 1 18.12.2026 -
Franko Kovačević Ferencvaros Aktiv 134 / 129 40% 1 18.12.2026 -
Erik Botheim Malmo FF Aktiv 117 / 120 40% 4 17.12.2026 -
Derry Murkin Derby County Aktiv 129 / 120 40% 1 17.12.2026 -
Everton Bala Levski Aktiv 113 / 113 40% 3 14.12.2026 -
Lorent Tolaj Plymouth Argyle Aktiv 130 / 129 40% 1 12.12.2026 -
August Priske Birmingham Aktiv 118 / 131 40% 1 10.12.2026 -
Diego García Malmo FF Aktiv 118 / 130 40% 2 09.12.2026 -
Morgan Whittaker Middlesbrough Aktiv 119 / 125 40% 1 07.12.2026 -
Paulos Abraham Hammarby Aktiv 132 / 127 40% 2 06.12.2026 -
Teboho Tau Ajax Cape Town Aktiv 99 / 127 40% 2 06.12.2026 -
Suleiman Camara Slovan Bratislava Aktiv 111 / 99 40% 1 06.12.2026 -
Rocco Vata Watford Aktiv 129 / 115 40% 1 03.12.2026 -
Yeangel Montero Naxxar Lions Aktiv 116 / 97 40% 1 29.11.2026 -
Nicolás Fernández Mercau New York City Aktiv 132 / 140 40% 1 29.11.2026 -
Iuri Tavares NK Varazdin Aktiv 123 / 98 40% 1 27.11.2026 -
Vitalii Dakhnovskyi Bukovyna Aktiv 113 / 116 40% 2 26.11.2026 -
Matej Trusa DAC Dunajska Streda Aktiv 104 / 130 40% 1 26.11.2026 -
Reda Khadra Qarabag Aktiv 136 / 129 40% 1 26.11.2026 -
Tadeo Allende Inter Miami CF Aktiv 116 / 111 40% 5 24.11.2026 -
Haissem Hassan Bloemfontein Celtic Aktiv 135 / 116 40% 3 23.11.2026 -
Kelvin Yeboah Minnesota United FC Aktiv 117 / 109 40% 1 21.11.2026 -
Max Fenger IFK Goteborg Aktiv 133 / 119 40% 4 20.11.2026 -
Louis Munteanu DC United Aktiv 113 / 137 40% 2 20.11.2026 -
Rok Zajc NK Domzale Aktiv 129 / 142 40% 2 19.11.2026 -
Evidence Makgopa Orlando Pirates Aktiv 99 / 102 40% 2 17.11.2026 -
Jean-Luc Morin Tours Aktiv 138 / 144 40% 1 17.11.2026 -
Marcelo Allende Mamelodi Sundowns Aktiv 133 / 142 40% 1 17.11.2026 -
Marko Brest Olimpija Ljubljana Aktiv 110 / 106 40% 1 16.11.2026 -
Dimitar Mitrovski Olimpija Ljubljana Aktiv 118 / 99 40% 1 16.11.2026 -
Talles Magno New York City Aktiv 147 / 147 40% 1 14.11.2026 -
Armindo Sieb Los Angeles Football Club Aktiv 136 / 106 40% 2 13.11.2026 -
Jesus Ferreira Seattle Sounders Aktiv 117 / 111 40% 5 11.11.2026 -
Petar Stanić Ludogorets Aktiv 141 / 152 40% 1 11.11.2026 -
Ammar Ramadan DAC Dunajska Streda Aktiv 140 / 132 40% 2 09.11.2026 -
Gonzalo Plata Dinamo Moscow Aktiv 150 / 126 40% 3 06.11.2026 -
Sota Kitano Red Bull Salzburg Aktiv 111 / 131 40% 1 03.11.2026 -
Obilor Okeke Hammarby Aktiv 109 / 116 40% 2 02.11.2026 -
José Barreto Fehervar Aktiv 96 / 113 40% 1 01.11.2026 -
Leonardo Campana New England Revolution Aktiv 125 / 137 40% 2 31.10.2026 -
Patrik Wålemark Lech Aktiv 120 / 140 40% 1 31.10.2026 -
Juan Manuel Boselli Krasnodar Aktiv 110 / 120 40% 1 27.10.2026 -
Iván Angulo Orlando City Aktiv 138 / 108 40% 1 26.10.2026 -
Kein Sato FC Tokyo Aktiv 151 / 125 40% 5 24.10.2026 -
Tomás Chancalay Minnesota United FC Aktiv 128 / 131 40% 2 22.10.2026 -
Ciprian Coman Pandurii Aktiv 119 / 139 40% 1 21.10.2026 -
Rafael Navarro Colorado Rapids Aktiv 125 / 141 40% 2 19.10.2026 -
Dejan Joveljić Seattle Sounders Aktiv 131 / 118 40% 2 17.10.2026 -
Helinho Toluca Aktiv 142 / 139 40% 1 15.10.2026 -
Alexander Aravena Portland Timbers Aktiv 121 / 143 40% 2 12.10.2026 -
Kristian Strømland Lien Djurgarden Aktiv 105 / 131 40% 2 11.10.2026 -
Noah Persson Hammarby Aktiv 121 / 118 40% 1 11.10.2026 -
Mikhail Ignatov Sochi Aktiv 128 / 132 40% 1 07.10.2026 -
Cheikh Sabaly Vancouver Whitecaps Aktiv 131 / 111 40% 1 06.10.2026 -
Liel Abada Charlotte Football Club Aktiv 142 / 118 40% 1 06.10.2026 -
Conrad Wallem Valerenga Aktiv 123 / 129 40% 1 06.10.2026 -
Archie Goodwin Charlotte Football Club Aktiv 107 / 116 40% 1 04.10.2026 -
Ola Brynhildsen Bodo/Glimt Aktiv 133 / 112 40% 2 02.10.2026 -
Ayoub Jabbari FC Cincinnati Aktiv 106 / 118 40% 1 01.10.2026 -
Allahyar Sayyadmanesh Lech Aktiv 106 / 107 40% 1 30.09.2026 -
Karim Konaté Red Bull Salzburg Aktiv 125 / 151 40% 1 29.09.2026 -
Brandon Vázquez Austin FC Aktiv 131 / 132 40% 1 28.09.2026 -
Kévin Denkey FC Cincinnati Aktiv 120 / 107 40% 1 28.09.2026 -
Erik Flataker AIK Aktiv 99 / 122 40% 1 25.09.2026 -
Razvan Puscas Astra Aktiv 129 / 115 40% 1 25.09.2026 -
Ramiro Ruiz Rodríguez Atlético Tucumán Aktiv 109 / 107 40% 1 19.09.2026 -
Victor Olatunji Real Salt Lake Aktiv 103 / 122 40% 1 15.09.2026 -
Sead Hakšabanović Malmo FF Aktiv 111 / 119 40% 1 11.09.2026 -
Ibrahim Aliyu Houston Dynamo Aktiv 119 / 135 40% 1 10.09.2026 -
Juan Dinenno Pumas UNAM Aktiv 141 / 117 40% 1 02.08.2026 -